Time;durP1;ratioP1;P1;durP2;ratioP2;P2;SDS_P1;SDS_P2;PMS_P1;PMS_P2;Temp;Humidity;BMP_temperature;BMP_pressure;BME280_temperature;BME280_humidity;BME280_pressure;Samples;Min_cycle;Max_cycle;Signal;HPM_P1;HPM_P2
2022/07/02 00:00:20;;;;;;;4.95;2.50;;;;;;;;;;10072138;28;20494;-71
2022/07/02 00:05:14;;;;;;;4.68;2.05;;;;;;;;;;10070925;28;20057;-70
2022/07/02 00:10:09;;;;;;;5.22;2.40;;;;;;;;;;10068146;28;20057;-70
2022/07/02 00:15:05;;;;;;;8.15;1.98;;;;;;;;;;10071084;28;20049;-70
2022/07/02 00:20:01;;;;;;;5.47;1.60;;;;;;;;;;10071542;28;20417;-70
2022/07/02 00:24:56;;;;;;;5.88;1.75;;;;;;;;;;10071281;28;20103;-70
2022/07/02 00:29:58;;;;;;;4.28;1.63;;;;;;;;;;10070513;28;20056;-70
2022/07/02 00:34:53;;;;;;;3.00;1.60;;;;;;;;;;10075316;28;20049;-71
2022/07/02 00:39:46;;;;;;;10.20;3.17;;;;;;;;;;10069014;28;20051;-72
2022/07/02 00:44:41;;;;;;;1.95;1.80;;;;;;;;;;10066231;28;20128;-72
2022/07/02 00:49:37;;;;;;;4.53;1.60;;;;;;;;;;10069521;28;20041;-72
2022/07/02 00:54:30;;;;;;;2.30;1.67;;;;;;;;;;10069002;28;20051;-72
2022/07/02 00:59:26;;;;;;;1.60;1.50;;;;;;;;;;10070257;28;20057;-72
2022/07/02 01:04:23;;;;;;;3.90;1.60;;;;;;;;;;10070017;28;20041;-71
2022/07/02 01:14:29;;;;;;;5.55;1.98;;;;;;;;;;10069333;28;20494;-72
2022/07/02 01:19:23;;;;;;;2.83;1.63;;;;;;;;;;10069440;28;20095;-69
2022/07/02 01:24:24;;;;;;;4.95;1.90;;;;;;;;;;10069514;28;20052;-70
2022/07/02 01:29:18;;;;;;;4.78;1.70;;;;;;;;;;10069124;28;20060;-69
2022/07/02 01:34:12;;;;;;;3.50;1.83;;;;;;;;;;10068501;28;20049;-70
2022/07/02 01:39:06;;;;;;;1.70;1.60;;;;;;;;;;10068600;28;20048;-70
2022/07/02 01:44:00;;;;;;;2.83;1.75;;;;;;;;;;10067916;28;20092;-71
2022/07/02 01:48:54;;;;;;;4.47;1.90;;;;;;;;;;10067410;28;20464;-69
2022/07/02 01:53:48;;;;;;;4.88;2.00;;;;;;;;;;10067139;28;20058;-71
2022/07/02 01:58:42;;;;;;;6.18;3.20;;;;;;;;;;10067884;28;20049;-70
2022/07/02 02:03:37;;;;;;;6.40;1.65;;;;;;;;;;10067617;28;20053;-72
2022/07/02 02:08:31;;;;;;;2.25;1.83;;;;;;;;;;10067340;28;20564;-72
2022/07/02 02:13:25;;;;;;;2.17;1.90;;;;;;;;;;10066968;28;20045;-69
2022/07/02 02:18:19;;;;;;;2.95;1.73;;;;;;;;;;10067057;28;20101;-70
2022/07/02 02:23:14;;;;;;;3.60;2.20;;;;;;;;;;10066784;28;20060;-68
2022/07/02 02:28:07;;;;;;;1.60;1.45;;;;;;;;;;10066570;28;20060;-68
2022/07/02 02:33:02;;;;;;;10.13;2.10;;;;;;;;;;10067352;28;20489;-69
2022/07/02 02:37:55;;;;;;;5.05;2.03;;;;;;;;;;10066274;28;20054;-68
2022/07/02 02:42:49;;;;;;;5.65;1.80;;;;;;;;;;10066457;28;20049;-70
2022/07/02 02:47:43;;;;;;;2.97;2.00;;;;;;;;;;10066419;28;20069;-68
2022/07/02 02:52:37;;;;;;;5.45;2.08;;;;;;;;;;10065919;28;20061;-69
2022/07/02 02:57:31;;;;;;;5.45;1.50;;;;;;;;;;10066430;28;20567;-70
2022/07/02 03:02:25;;;;;;;6.07;1.70;;;;;;;;;;10066276;28;20494;-69
2022/07/02 03:07:19;;;;;;;2.25;1.92;;;;;;;;;;10065261;28;20100;-69
2022/07/02 03:12:14;;;;;;;1.83;1.63;;;;;;;;;;10071251;28;20057;-71
2022/07/02 03:17:11;;;;;;;4.32;1.95;;;;;;;;;;10065430;28;20049;-70
2022/07/02 03:22:04;;;;;;;1.88;1.70;;;;;;;;;;10065257;28;20053;-70
2022/07/02 03:26:59;;;;;;;3.53;1.85;;;;;;;;;;10067163;28;20095;-70
2022/07/02 03:31:53;;;;;;;7.90;2.10;;;;;;;;;;10072980;28;20056;-69
2022/07/02 03:36:46;;;;;;;5.72;1.92;;;;;;;;;;10072643;28;20468;-70
2022/07/02 03:41:40;;;;;;;4.35;2.53;;;;;;;;;;10071424;28;20418;-70
2022/07/02 03:46:34;;;;;;;3.35;2.15;;;;;;;;;;10072104;28;20041;-70
2022/07/02 03:51:27;;;;;;;4.00;1.85;;;;;;;;;;10072412;28;20063;-72
2022/07/02 03:56:22;;;;;;;2.00;1.52;;;;;;;;;;10071823;28;20081;-70
2022/07/02 04:01:17;;;;;;;3.63;1.63;;;;;;;;;;10071897;28;20453;-70
2022/07/02 04:06:11;;;;;;;3.97;1.90;;;;;;;;;;10071659;28;20575;-69
2022/07/02 04:11:05;;;;;;;4.32;2.05;;;;;;;;;;10071933;28;20059;-71
2022/07/02 04:15:58;;;;;;;4.68;2.05;;;;;;;;;;10071692;28;20041;-71
2022/07/02 04:20:51;;;;;;;2.03;1.73;;;;;;;;;;10069882;28;20151;-70
2022/07/02 04:25:45;;;;;;;7.18;2.10;;;;;;;;;;10070740;28;20049;-71
2022/07/02 04:30:38;;;;;;;4.88;2.00;;;;;;;;;;10074309;28;20056;-70
2022/07/02 04:35:33;;;;;;;4.40;1.73;;;;;;;;;;10071120;28;20046;-70
2022/07/02 04:40:26;;;;;;;2.53;1.77;;;;;;;;;;10069731;28;20075;-70
2022/07/02 04:45:20;;;;;;;5.88;1.60;;;;;;;;;;10070065;28;20132;-70
2022/07/02 04:50:14;;;;;;;7.82;2.15;;;;;;;;;;10073850;28;20077;-70
2022/07/02 04:55:09;;;;;;;2.15;1.63;;;;;;;;;;10070360;28;20081;-68
2022/07/02 05:00:04;;;;;;;4.70;1.67;;;;;;;;;;10069566;28;20069;-69
2022/07/02 05:04:59;;;;;;;6.75;2.08;;;;;;;;;;10070186;28;20045;-69
2022/07/02 05:09:54;;;;;;;4.28;1.80;;;;;;;;;;10069337;28;20053;-69
2022/07/02 05:14:48;;;;;;;2.63;1.95;;;;;;;;;;10068354;28;20056;-68
2022/07/02 05:19:41;;;;;;;2.50;1.77;;;;;;;;;;10068806;28;20050;-68
2022/07/02 05:24:36;;;;;;;3.78;1.80;;;;;;;;;;10069107;28;20050;-70
2022/07/02 05:29:30;;;;;;;4.22;2.45;;;;;;;;;;10062195;28;20076;-69
2022/07/02 05:34:24;;;;;;;6.63;3.58;;;;;;;;;;10068768;28;20136;-70
2022/07/02 05:39:18;;;;;;;4.28;3.50;;;;;;;;;;10092852;28;20592;-70
2022/07/02 05:44:13;;;;;;;8.80;3.33;;;;;;;;;;10089329;28;20065;-69
2022/07/02 05:49:07;;;;;;;16.13;3.60;;;;;;;;;;10097292;28;20058;-70
2022/07/02 05:54:01;;;;;;;11.57;3.88;;;;;;;;;;10098218;28;20502;-70
2022/07/02 05:58:56;;;;;;;6.97;3.03;;;;;;;;;;10090518;28;20581;-68
2022/07/02 06:03:49;;;;;;;4.53;2.35;;;;;;;;;;10094054;28;20045;-69
2022/07/02 06:08:44;;;;;;;6.22;2.95;;;;;;;;;;10067153;28;20058;-69
2022/07/02 06:13:38;;;;;;;8.90;2.88;;;;;;;;;;10067417;28;20304;-70
2022/07/02 06:18:33;;;;;;;5.90;2.47;;;;;;;;;;10066956;28;20053;-71
2022/07/02 06:23:32;;;;;;;5.43;2.70;;;;;;;;;;10066406;28;20099;-69
2022/07/02 06:28:35;;;;;;;2.83;2.30;;;;;;;;;;10079467;28;20049;-70
2022/07/02 06:33:39;;;;;;;5.10;2.55;;;;;;;;;;10069882;28;20502;-70
2022/07/02 06:38:42;;;;;;;4.80;3.05;;;;;;;;;;10066491;28;20563;-71
2022/07/02 06:43:39;;;;;;;6.00;3.03;;;;;;;;;;10063489;28;20072;-71
2022/07/02 06:48:33;;;;;;;9.10;2.97;;;;;;;;;;10065969;28;20057;-73
2022/07/02 06:53:26;;;;;;;5.20;3.20;;;;;;;;;;10065093;28;20558;-71
2022/07/02 06:58:20;;;;;;;4.85;2.53;;;;;;;;;;10065885;28;20057;-68
2022/07/02 07:03:14;;;;;;;4.95;3.03;;;;;;;;;;10071969;28;20132;-66
2022/07/02 07:08:09;;;;;;;15.35;4.15;;;;;;;;;;10074275;28;20054;-68
2022/07/02 07:13:10;;;;;;;8.70;3.00;;;;;;;;;;10074262;28;20494;-68
2022/07/02 07:18:04;;;;;;;6.50;2.90;;;;;;;;;;10073219;28;20137;-68
2022/07/02 07:23:02;;;;;;;5.93;3.35;;;;;;;;;;10073323;28;20065;-71
2022/07/02 07:27:55;;;;;;;7.43;3.60;;;;;;;;;;10073954;28;20045;-69
2022/07/02 07:32:50;;;;;;;8.38;3.58;;;;;;;;;;10097970;28;20525;-69
2022/07/02 07:37:57;;;;;;;9.98;4.18;;;;;;;;;;10092703;28;20124;-67
2022/07/02 07:42:51;;;;;;;6.05;5.15;;;;;;;;;;10092175;28;20456;-66
2022/07/02 07:47:46;;;;;;;8.60;4.82;;;;;;;;;;10088894;28;20489;-67
2022/07/02 07:52:39;;;;;;;15.02;4.90;;;;;;;;;;10088419;28;20049;-70
2022/07/02 07:57:33;;;;;;;11.63;6.20;;;;;;;;;;10095324;28;20426;-67
2022/07/02 08:02:26;;;;;;;9.50;4.57;;;;;;;;;;10088123;28;20144;-67
2022/07/02 08:07:21;;;;;;;12.90;4.97;;;;;;;;;;10101814;28;20098;-67
2022/07/02 08:12:14;;;;;;;8.18;4.88;;;;;;;;;;10096336;28;20110;-67
2022/07/02 08:17:08;;;;;;;17.88;6.68;;;;;;;;;;10094808;28;20797;-68
2022/07/02 08:22:02;;;;;;;15.82;6.03;;;;;;;;;;10074625;28;20050;-68
2022/07/02 08:26:56;;;;;;;9.73;6.63;;;;;;;;;;10102152;28;20561;-68
2022/07/02 08:31:52;;;;;;;13.77;6.93;;;;;;;;;;10088835;28;20081;-66
2022/07/02 08:36:45;;;;;;;13.80;5.40;;;;;;;;;;10051497;28;20037;-67
2022/07/02 08:41:41;;;;;;;15.73;6.70;;;;;;;;;;10074571;28;20064;-65
2022/07/02 08:46:39;;;;;;;92.38;13.48;;;;;;;;;;10092304;28;20099;-67
2022/07/02 08:54:24;;;;;;;13.73;6.10;;;;;;;;;;10154471;27;20462;-67
2022/07/02 08:59:20;;;;;;;13.00;5.22;;;;;;;;;;10151456;28;20115;-67
2022/07/02 09:04:14;;;;;;;;;;;;;;;;;;10175438;28;20056;-64
2022/07/02 09:09:09;;;;;;;18.48;6.38;;;;;;;;;;10174721;28;19959;-63
2022/07/02 09:14:05;;;;;;;16.95;5.72;;;;;;;;;;10175411;28;20131;-62
2022/07/02 09:18:58;;;;;;;16.10;7.25;;;;;;;;;;10158215;28;20299;-63
2022/07/02 09:23:53;;;;;;;15.23;5.15;;;;;;;;;;10157283;28;20059;-63
2022/07/02 09:29:03;;;;;;;12.35;5.15;;;;;;;;;;10161037;28;20060;-62
2022/07/02 09:33:56;;;;;;;11.68;5.20;;;;;;;;;;10163670;28;20055;-65
2022/07/02 09:38:52;;;;;;;14.05;4.65;;;;;;;;;;10158812;28;20036;-62
2022/07/02 09:43:51;;;;;;;15.35;3.78;;;;;;;;;;10156243;28;20060;-61
2022/07/02 09:48:51;;;;;;;10.68;3.33;;;;;;;;;;10159779;28;20533;-63
2022/07/02 09:53:56;;;;;;;12.35;3.33;;;;;;;;;;10155220;28;20071;-64
2022/07/02 09:58:49;;;;;;;10.75;3.50;;;;;;;;;;10151444;28;20503;-62
2022/07/02 10:03:52;;;;;;;15.25;3.92;;;;;;;;;;10147939;28;20041;-63
2022/07/02 10:08:46;;;;;;;10.27;2.83;;;;;;;;;;10131941;28;20057;-64
2022/07/02 10:13:41;;;;;;;9.32;2.58;;;;;;;;;;10137720;28;20061;-64
2022/07/02 10:18:35;;;;;;;12.23;2.93;;;;;;;;;;10086401;28;20054;-64
2022/07/02 10:23:30;;;;;;;8.40;2.50;;;;;;;;;;10082386;28;20372;-63
2022/07/02 10:30:07;;;;;;;8.32;2.05;;;;;;;;;;10168712;27;20122;-63
2022/07/02 10:35:12;;;;;;;12.70;2.67;;;;;;;;;;10113969;28;20484;-60
2022/07/02 10:40:07;;;;;;;;;;;;;;;;;;10108983;28;20131;-60
2022/07/02 10:45:09;;;;;;;15.00;2.80;;;;;;;;;;10102598;28;19921;-59
2022/07/02 10:50:05;;;;;;;14.27;3.53;;;;;;;;;;10164511;28;20080;-59
2022/07/02 10:54:59;;;;;;;14.32;4.03;;;;;;;;;;10166211;28;20123;-59
2022/07/02 10:59:53;;;;;;;12.90;3.08;;;;;;;;;;10163307;28;20506;-59
2022/07/02 11:04:48;;;;;;;10.02;3.00;;;;;;;;;;10164160;28;20036;-60
2022/07/02 11:09:45;;;;;;;8.68;2.70;;;;;;;;;;10164297;28;20048;-60
2022/07/02 11:14:40;;;;;;;7.63;3.42;;;;;;;;;;10167715;28;20048;-61
2022/07/02 11:19:57;;;;;;;15.05;3.45;;;;;;;;;;10157089;28;20052;-60
2022/07/02 11:24:54;;;;;;;6.65;3.35;;;;;;;;;;10176679;28;20048;-60
2022/07/02 11:29:55;;;;;;;10.85;3.28;;;;;;;;;;10125572;28;20525;-60
2022/07/02 11:34:59;;;;;;;14.43;3.85;;;;;;;;;;10133472;28;20052;-60
2022/07/02 11:39:52;;;;;;;19.80;3.60;;;;;;;;;;10111680;28;20128;-60
2022/07/02 11:44:50;;;;;;;7.85;3.20;;;;;;;;;;10097453;28;21012;-60
2022/07/02 11:49:45;;;;;;;11.70;2.90;;;;;;;;;;10100249;28;20061;-60
2022/07/02 11:54:41;;;;;;;10.13;3.20;;;;;;;;;;10125777;28;20487;-60
2022/07/02 11:59:36;;;;;;;11.65;3.45;;;;;;;;;;10132833;28;20056;-59
2022/07/02 12:04:30;;;;;;;7.45;2.40;;;;;;;;;;10107331;28;20423;-62
2022/07/02 12:09:25;;;;;;;6.97;2.25;;;;;;;;;;10122179;28;20049;-62
2022/07/02 12:14:41;;;;;;;6.35;2.50;;;;;;;;;;10108168;28;20049;-62
2022/07/02 12:19:35;;;;;;;9.82;3.53;;;;;;;;;;10109495;28;20124;-62
2022/07/02 12:24:31;;;;;;;9.07;3.55;;;;;;;;;;10123606;28;20487;-62
2022/07/02 12:35:00;;;;;;;9.73;3.15;;;;;;;;;;10113218;28;20045;-63
2022/07/02 12:40:18;;;;;;;8.30;3.00;;;;;;;;;;10121276;28;20474;-63
2022/07/02 12:45:20;;;;;;;13.35;3.75;;;;;;;;;;10098252;28;20060;-62
2022/07/02 12:50:15;;;;;;;10.65;3.13;;;;;;;;;;10114365;28;20054;-62
2022/07/02 12:55:23;;;;;;;5.82;2.20;;;;;;;;;;10103790;28;20478;-61
2022/07/02 13:00:17;;;;;;;13.38;3.35;;;;;;;;;;10123853;28;20059;-63
2022/07/02 13:05:12;;;;;;;17.20;4.40;;;;;;;;;;10108566;28;20057;-63
2022/07/02 13:10:06;;;;;;;10.02;3.00;;;;;;;;;;10103532;28;20057;-63
2022/07/02 13:15:00;;;;;;;8.57;2.88;;;;;;;;;;10104054;28;20095;-62
2022/07/02 13:19:54;;;;;;;5.43;2.95;;;;;;;;;;10113515;28;20511;-62
2022/07/02 13:24:48;;;;;;;12.50;3.97;;;;;;;;;;10113104;28;20056;-62
2022/07/02 13:29:43;;;;;;;8.93;2.88;;;;;;;;;;10113114;28;20143;-62
2022/07/02 13:34:36;;;;;;;8.13;2.55;;;;;;;;;;10110193;28;20459;-61
2022/07/02 13:39:30;;;;;;;10.43;3.72;;;;;;;;;;10112613;28;20763;-62
2022/07/02 13:44:24;;;;;;;10.90;2.80;;;;;;;;;;10124694;28;20034;-64
2022/07/02 13:49:19;;;;;;;10.57;2.97;;;;;;;;;;10099632;28;20132;-64
2022/07/02 13:54:14;;;;;;;4.93;2.33;;;;;;;;;;10120206;28;20420;-63
2022/07/02 13:59:08;;;;;;;6.60;2.67;;;;;;;;;;10098828;28;20055;-64
2022/07/02 14:04:02;;;;;;;13.75;2.33;;;;;;;;;;10108170;28;20041;-62
2022/07/02 14:08:59;;;;;;;6.60;2.20;;;;;;;;;;10085784;28;20053;-62
2022/07/02 14:13:53;;;;;;;10.57;3.10;;;;;;;;;;10110895;28;20071;-62
2022/07/02 14:18:47;;;;;;;5.20;2.20;;;;;;;;;;10091777;28;20144;-62
2022/07/02 14:23:41;;;;;;;12.88;2.53;;;;;;;;;;10078491;28;20094;-62
2022/07/02 14:28:35;;;;;;;6.30;2.67;;;;;;;;;;10088207;28;20662;-62
2022/07/02 14:33:30;;;;;;;13.45;2.90;;;;;;;;;;10077087;28;20109;-62
2022/07/02 14:38:24;;;;;;;10.25;2.72;;;;;;;;;;10082653;28;20499;-62
2022/07/02 14:43:18;;;;;;;5.72;2.10;;;;;;;;;;10088621;28;20041;-62
2022/07/02 14:48:11;;;;;;;6.70;2.78;;;;;;;;;;10081243;28;21342;-61
2022/07/02 14:53:06;;;;;;;6.45;2.33;;;;;;;;;;10089240;28;20136;-61
2022/07/02 14:58:00;;;;;;;8.18;2.25;;;;;;;;;;10073812;28;20057;-62
2022/07/02 15:02:54;;;;;;;5.07;2.17;;;;;;;;;;10088549;28;20042;-62
2022/07/02 15:07:49;;;;;;;8.93;2.10;;;;;;;;;;10074695;28;20392;-63
2022/07/02 15:12:43;;;;;;;9.10;2.80;;;;;;;;;;10084317;28;20543;-63
2022/07/02 15:17:36;;;;;;;12.35;2.25;;;;;;;;;;10089591;28;20449;-65
2022/07/02 15:22:36;;;;;;;6.53;2.28;;;;;;;;;;10091882;28;20057;-63
2022/07/02 15:27:32;;;;;;;5.93;2.42;;;;;;;;;;10097804;28;20100;-65
2022/07/02 15:32:29;;;;;;;10.38;2.40;;;;;;;;;;10107624;28;20057;-75
2022/07/02 15:37:24;;;;;;;8.73;2.83;;;;;;;;;;10106084;28;20045;-75
2022/07/02 15:42:27;;;;;;;12.70;2.53;;;;;;;;;;10109304;28;20045;-74
2022/07/02 15:47:20;;;;;;;5.32;2.60;;;;;;;;;;10114172;28;20303;-73
2022/07/02 15:52:25;;;;;;;7.95;2.38;;;;;;;;;;10087118;28;20136;-75
2022/07/02 15:57:19;;;;;;;8.10;2.25;;;;;;;;;;10105019;28;20044;-74
2022/07/02 16:02:14;;;;;;;6.43;2.80;;;;;;;;;;10089712;28;20402;-75
2022/07/02 16:07:09;;;;;;;5.53;2.45;;;;;;;;;;10096098;28;20168;-75
2022/07/02 16:12:07;;;;;;;12.20;3.17;;;;;;;;;;10095563;28;20065;-76
2022/07/02 16:17:00;;;;;;;6.47;2.28;;;;;;;;;;10073832;28;20049;-76
2022/07/02 16:21:55;;;;;;;2.85;2.03;;;;;;;;;;10073520;28;20141;-75
2022/07/02 16:26:51;;;;;;;13.02;2.92;;;;;;;;;;10078285;28;20045;-73
2022/07/02 16:31:49;;;;;;;5.60;2.47;;;;;;;;;;10078651;28;20041;-76
2022/07/02 16:36:43;;;;;;;5.47;2.60;;;;;;;;;;10082862;28;20645;-77
2022/07/02 16:41:42;;;;;;;10.98;2.78;;;;;;;;;;10067949;28;20098;-77
2022/07/02 16:46:38;;;;;;;8.25;2.33;;;;;;;;;;10079440;28;20447;-72
2022/07/02 16:51:35;;;;;;;7.25;2.13;;;;;;;;;;10079309;28;20049;-75
2022/07/02 16:56:29;;;;;;;7.18;2.35;;;;;;;;;;10065809;28;20128;-66
2022/07/02 17:01:23;;;;;;;6.90;2.65;;;;;;;;;;10058259;28;20051;-69
2022/07/02 17:06:17;;;;;;;13.95;3.65;;;;;;;;;;10073531;28;20539;-70
2022/07/02 17:11:29;;;;;;;11.05;3.13;;;;;;;;;;10075392;28;20057;-66
2022/07/02 17:16:23;;;;;;;10.10;2.95;;;;;;;;;;10076524;28;20072;-70
2022/07/02 17:21:16;;;;;;;6.63;2.75;;;;;;;;;;10079534;28;20049;-69
2022/07/02 17:26:09;;;;;;;7.57;2.30;;;;;;;;;;10075418;28;20141;-66
2022/07/02 17:31:03;;;;;;;10.02;2.72;;;;;;;;;;10077151;28;20041;-65
2022/07/02 17:35:57;;;;;;;7.47;2.50;;;;;;;;;;10075882;28;20056;-67
2022/07/02 17:40:52;;;;;;;6.40;2.70;;;;;;;;;;10069645;28;20045;-67
2022/07/02 17:45:46;;;;;;;4.68;2.70;;;;;;;;;;10074279;28;20045;-66
2022/07/02 17:50:41;;;;;;;7.80;3.63;;;;;;;;;;10076627;28;20488;-65
2022/07/02 17:55:35;;;;;;;7.65;2.90;;;;;;;;;;10072541;28;20045;-68
2022/07/02 18:00:30;;;;;;;10.23;3.35;;;;;;;;;;10075555;28;20079;-68
2022/07/02 18:05:24;;;;;;;6.63;3.10;;;;;;;;;;10080807;28;20036;-69
2022/07/02 18:10:19;;;;;;;7.10;3.20;;;;;;;;;;10073340;28;20052;-66
2022/07/02 18:15:16;;;;;;;10.68;3.22;;;;;;;;;;10074454;28;20046;-69
2022/07/02 18:20:11;;;;;;;7.60;3.53;;;;;;;;;;10073473;28;20053;-70
2022/07/02 18:25:08;;;;;;;7.53;3.72;;;;;;;;;;10078535;28;20088;-70
2022/07/02 18:30:02;;;;;;;6.82;3.85;;;;;;;;;;10001977;28;20052;-70
2022/07/02 18:34:55;;;;;;;9.45;3.42;;;;;;;;;;10015018;28;20528;-70
2022/07/02 18:39:50;;;;;;;10.60;3.22;;;;;;;;;;9993844;28;20077;-70
2022/07/02 18:44:43;;;;;;;9.77;3.03;;;;;;;;;;10009426;28;20082;-70
2022/07/02 18:49:38;;;;;;;8.75;3.45;;;;;;;;;;10004521;28;20441;-69
2022/07/02 18:54:32;;;;;;;12.60;3.22;;;;;;;;;;10005793;28;20054;-70
2022/07/02 18:59:26;;;;;;;7.53;3.22;;;;;;;;;;10026722;28;20571;-70
2022/07/02 19:04:21;;;;;;;7.85;3.95;;;;;;;;;;10026403;28;20064;-69
2022/07/02 19:09:16;;;;;;;16.23;4.68;;;;;;;;;;10015124;28;20042;-69
2022/07/02 19:14:09;;;;;;;19.70;7.53;;;;;;;;;;10009030;28;20054;-68
2022/07/02 19:19:03;;;;;;;18.52;5.93;;;;;;;;;;9997600;28;20070;-68
2022/07/02 19:23:58;;;;;;;8.88;4.28;;;;;;;;;;9973711;28;20405;-68
2022/07/02 19:34:04;;;;;;;12.20;4.93;;;;;;;;;;10133559;28;20052;-67
2022/07/02 19:38:59;;;;;;;10.20;3.65;;;;;;;;;;10133361;28;20449;-69
2022/07/02 19:43:52;;;;;;;10.43;3.78;;;;;;;;;;10137233;28;20414;-69
2022/07/02 19:48:46;;;;;;;18.15;4.82;;;;;;;;;;10124418;28;20048;-68
2022/07/02 19:53:39;;;;;;;12.07;4.00;;;;;;;;;;10124575;28;20053;-65
2022/07/02 19:58:35;;;;;;;11.10;4.05;;;;;;;;;;10132237;28;20060;-68
2022/07/02 20:03:29;;;;;;;16.45;5.03;;;;;;;;;;10127400;28;20143;-68
2022/07/02 20:08:23;;;;;;;18.83;4.47;;;;;;;;;;10132565;28;20045;-69
2022/07/02 20:13:17;;;;;;;10.93;4.32;;;;;;;;;;10135006;28;20047;-69
2022/07/02 20:18:10;;;;;;;17.45;5.07;;;;;;;;;;10138315;28;20079;-67
2022/07/02 20:23:06;;;;;;;14.40;5.28;;;;;;;;;;10124636;28;20460;-68
2022/07/02 20:28:02;;;;;;;12.35;3.90;;;;;;;;;;10131306;28;20084;-68
2022/07/02 20:32:57;;;;;;;16.25;5.05;;;;;;;;;;10129879;28;20052;-67
2022/07/02 20:37:49;;;;;;;14.52;4.00;;;;;;;;;;10131937;28;20072;-67
2022/07/02 20:42:42;;;;;;;16.13;4.50;;;;;;;;;;10132497;28;20427;-67
2022/07/02 20:47:38;;;;;;;14.32;4.50;;;;;;;;;;10120844;28;20090;-68
2022/07/02 20:52:32;;;;;;;12.60;5.28;;;;;;;;;;10129026;28;20079;-68
2022/07/02 20:57:28;;;;;;;17.58;4.75;;;;;;;;;;10130154;28;20041;-68
2022/07/02 21:02:22;;;;;;;16.40;4.45;;;;;;;;;;10128955;28;20041;-68
2022/07/02 21:07:17;;;;;;;22.48;5.18;;;;;;;;;;10132173;28;20074;-68
2022/07/02 21:12:11;;;;;;;8.32;4.13;;;;;;;;;;10125548;28;20433;-67
2022/07/02 21:17:08;;;;;;;11.68;4.30;;;;;;;;;;10125677;28;20056;-66
2022/07/02 21:22:03;;;;;;;9.48;4.40;;;;;;;;;;10130963;28;20050;-65
2022/07/02 21:26:57;;;;;;;8.75;4.60;;;;;;;;;;10133529;28;20049;-65
2022/07/02 21:31:51;;;;;;;9.88;4.47;;;;;;;;;;10130794;28;20716;-64
2022/07/02 21:37:04;;;;;;;14.40;4.82;;;;;;;;;;10127117;28;20056;-65
2022/07/02 21:41:58;;;;;;;13.68;4.60;;;;;;;;;;10134056;28;20048;-63
2022/07/02 21:46:52;;;;;;;14.93;4.20;;;;;;;;;;10128081;28;20106;-65
2022/07/02 21:51:46;;;;;;;9.98;4.40;;;;;;;;;;10130351;28;20427;-65
2022/07/02 21:56:40;;;;;;;10.57;4.32;;;;;;;;;;10130731;28;20052;-65
2022/07/02 22:01:35;;;;;;;14.88;4.25;;;;;;;;;;10135596;28;20068;-64
2022/07/02 22:06:29;;;;;;;10.65;4.35;;;;;;;;;;10129743;28;20066;-63
2022/07/02 22:11:24;;;;;;;11.40;4.10;;;;;;;;;;10129589;28;20063;-63
2022/07/02 22:16:18;;;;;;;10.90;4.80;;;;;;;;;;10139296;28;20049;-63
2022/07/02 22:21:12;;;;;;;13.65;4.03;;;;;;;;;;10140088;28;20083;-63
2022/07/02 22:26:05;;;;;;;12.00;5.35;;;;;;;;;;10137475;28;20545;-64
2022/07/02 22:30:59;;;;;;;10.40;5.47;;;;;;;;;;10133283;28;20049;-64
2022/07/02 22:35:53;;;;;;;14.70;4.47;;;;;;;;;;10134991;28;20045;-64
2022/07/02 22:40:47;;;;;;;6.38;4.50;;;;;;;;;;10137802;28;20614;-64
2022/07/02 22:45:41;;;;;;;15.55;5.00;;;;;;;;;;10134313;28;20565;-64
2022/07/02 22:50:35;;;;;;;8.13;4.43;;;;;;;;;;10132427;28;20060;-65
2022/07/02 22:55:29;;;;;;;11.30;4.63;;;;;;;;;;10134195;28;20064;-65
2022/07/02 23:00:23;;;;;;;11.13;4.82;;;;;;;;;;10133821;28;20052;-65
2022/07/02 23:05:17;;;;;;;6.05;4.35;;;;;;;;;;10128015;28;20056;-65
2022/07/02 23:10:11;;;;;;;13.32;5.22;;;;;;;;;;10138268;28;20072;-64
2022/07/02 23:15:09;;;;;;;10.93;4.80;;;;;;;;;;10138519;28;20131;-64
2022/07/02 23:20:03;;;;;;;8.23;4.72;;;;;;;;;;10132859;28;20041;-63
2022/07/02 23:25:01;;;;;;;5.80;4.35;;;;;;;;;;10127372;28;20421;-64
2022/07/02 23:29:55;;;;;;;10.68;4.88;;;;;;;;;;10127606;28;20067;-63
2022/07/02 23:34:48;;;;;;;8.85;4.88;;;;;;;;;;10127474;28;20817;-64
2022/07/02 23:39:42;;;;;;;9.80;4.57;;;;;;;;;;10137356;28;20450;-65
2022/07/02 23:44:42;;;;;;;11.57;4.85;;;;;;;;;;10131449;28;20140;-64
2022/07/02 23:49:38;;;;;;;13.15;5.70;;;;;;;;;;10132462;28;20099;-66
2022/07/02 23:54:32;;;;;;;8.05;5.50;;;;;;;;;;10130176;28;20091;-65
2022/07/02 23:59:28;;;;;;;10.07;5.32;;;;;;;;;;10136438;28;20051;-62
